createdAt,value
2017-10-10T00:00:58.931Z,33.6
2017-10-10T00:01:58.865Z,33.6
2017-10-10T00:02:58.942Z,33.6
2017-10-10T00:03:58.979Z,33.6
2017-10-10T00:04:58.988Z,33.6
2017-10-10T00:05:59.226Z,33.6
2017-10-10T00:06:59.141Z,33.6
2017-10-10T00:07:59.183Z,33.6
2017-10-10T00:08:59.222Z,33.6
2017-10-10T00:09:59.387Z,33.6
2017-10-10T00:10:59.535Z,33.6
2017-10-10T00:11:59.542Z,33.6
2017-10-10T00:12:59.665Z,33.6
2017-10-10T00:13:59.608Z,33.6
2017-10-10T00:14:59.700Z,33.6
2017-10-10T00:15:59.869Z,33.6
2017-10-10T00:16:59.768Z,33.6
2017-10-10T00:17:59.923Z,33.6
2017-10-10T00:18:59.901Z,33.6
2017-10-10T00:20:00.076Z,33.6
2017-10-10T00:21:00.111Z,33.6
2017-10-10T00:22:00.125Z,33.6
2017-10-10T00:23:00.052Z,33.6
2017-10-10T00:24:00.232Z,33.6
2017-10-10T00:25:00.176Z,33.6
2017-10-10T00:26:00.416Z,33.6
2017-10-10T00:27:00.521Z,33.6
2017-10-10T00:28:00.399Z,33.6
2017-10-10T00:29:00.623Z,33.6
2017-10-10T00:30:00.530Z,33.6
2017-10-10T00:31:00.813Z,33.6
2017-10-10T00:32:00.699Z,33.6
2017-10-10T00:33:00.826Z,33.6
2017-10-10T00:34:00.788Z,33.6
2017-10-10T00:35:00.995Z,33.6
2017-10-10T00:36:00.929Z,33.6
2017-10-10T00:37:01.097Z,33.6
2017-10-10T00:38:01.240Z,33.6
2017-10-10T00:39:01.160Z,33.6
2017-10-10T00:40:01.228Z,33.6
2017-10-10T00:41:01.337Z,33.6
2017-10-10T00:42:01.283Z,33.6
2017-10-10T00:43:01.393Z,33.6
2017-10-10T00:44:01.290Z,33.6
2017-10-10T00:45:01.349Z,33.6
2017-10-10T00:46:01.409Z,33.6
2017-10-10T00:47:01.457Z,33.6
2017-10-10T00:48:01.621Z,33.6
2017-10-10T00:49:01.562Z,33.6
2017-10-10T00:50:01.616Z,33.6
2017-10-10T00:51:01.558Z,33.6
2017-10-10T00:52:01.669Z,33.6
2017-10-10T00:53:01.761Z,33.6
2017-10-10T00:54:01.973Z,33.6
2017-10-10T00:55:01.837Z,33.6
2017-10-10T00:56:01.981Z,33.6
2017-10-10T00:57:01.884Z,33.6
2017-10-10T00:58:02.048Z,33.6
2017-10-10T00:59:02.147Z,33.6
2017-10-10T01:00:02.190Z,33.6
2017-10-10T01:01:02.225Z,33.6
2017-10-10T01:02:02.309Z,33.6
2017-10-10T01:03:02.420Z,33.6
2017-10-10T01:04:02.352Z,33.6
2017-10-10T01:05:02.448Z,33.6
2017-10-10T01:06:02.561Z,33.6
2017-10-10T01:07:02.532Z,33.6
2017-10-10T01:08:02.627Z,33.6
2017-10-10T01:09:02.649Z,33.6
2017-10-10T01:10:02.836Z,33.6
2017-10-10T01:11:02.843Z,33.6
2017-10-10T01:12:02.959Z,33.6
2017-10-10T01:13:03.108Z,33.6
2017-10-10T01:14:03.016Z,33.6
2017-10-10T01:15:03.164Z,33.6
2017-10-10T01:16:03.208Z,33.6
2017-10-10T01:17:03.159Z,33.6
2017-10-10T01:18:03.230Z,33.6
2017-10-10T01:19:03.245Z,33.6
2017-10-10T01:20:03.427Z,33.6
2017-10-10T01:21:03.467Z,33.6
2017-10-10T01:22:03.429Z,33.6
2017-10-10T01:23:03.392Z,33.7
2017-10-10T01:24:03.448Z,33.6
2017-10-10T01:25:03.551Z,33.6
2017-10-10T01:26:03.728Z,33.7
2017-10-10T01:27:03.720Z,33.6
2017-10-10T01:28:03.675Z,33.7
2017-10-10T01:29:03.723Z,33.7
2017-10-10T01:30:03.831Z,33.7
2017-10-10T01:31:03.997Z,33.7
2017-10-10T01:32:04.023Z,33.7
2017-10-10T01:33:04.046Z,33.7
2017-10-10T01:34:04.341Z,33.7
2017-10-10T01:35:04.024Z,33.7
2017-10-10T01:36:04.180Z,33.7
2017-10-10T01:37:04.165Z,33.7
2017-10-10T01:38:04.156Z,33.7
2017-10-10T01:39:04.346Z,33.7
2017-10-10T01:40:04.523Z,33.7
2017-10-10T01:41:04.383Z,33.7
2017-10-10T01:42:04.394Z,33.7
2017-10-10T01:43:04.394Z,33.7
2017-10-10T01:44:04.399Z,33.7
2017-10-10T01:45:04.563Z,33.6
2017-10-10T01:46:04.728Z,33.7
2017-10-10T01:47:04.597Z,33.7
2017-10-10T01:48:04.652Z,33.7
2017-10-10T01:49:04.801Z,33.7
2017-10-10T01:50:04.791Z,33.7
2017-10-10T01:51:04.713Z,33.7
2017-10-10T01:52:05.042Z,33.7
2017-10-10T01:53:04.813Z,33.7
2017-10-10T01:54:04.893Z,33.7
2017-10-10T01:55:04.884Z,33.7
2017-10-10T01:56:04.987Z,33.7
2017-10-10T01:57:05.030Z,33.7
2017-10-10T01:58:05.421Z,33.7
2017-10-10T01:59:05.224Z,33.7
2017-10-10T02:00:05.271Z,33.7
2017-10-10T02:01:05.346Z,33.7
2017-10-10T02:02:05.384Z,33.7
2017-10-10T02:03:05.447Z,33.7
2017-10-10T02:04:05.650Z,33.7
2017-10-10T02:05:05.578Z,33.7
2017-10-10T02:06:05.478Z,33.7
2017-10-10T02:07:05.546Z,33.7
2017-10-10T02:08:05.550Z,33.7
2017-10-10T02:09:05.702Z,33.7
2017-10-10T02:10:05.999Z,33.7
2017-10-10T02:11:05.681Z,33.7
2017-10-10T02:12:05.710Z,33.7
2017-10-10T02:13:05.716Z,33.7
2017-10-10T02:14:05.873Z,33.7
2017-10-10T02:15:05.866Z,33.7
2017-10-10T02:16:06.292Z,33.7
2017-10-10T02:17:05.953Z,33.7
2017-10-10T02:18:06.117Z,33.7
2017-10-10T02:19:06.128Z,33.7
2017-10-10T02:20:06.183Z,33.7
2017-10-10T02:21:06.219Z,33.7
2017-10-10T02:22:06.368Z,33.7
2017-10-10T02:23:06.083Z,33.7
2017-10-10T02:24:06.219Z,33.7
2017-10-10T02:25:06.158Z,33.7
2017-10-10T02:26:06.370Z,33.7
2017-10-10T02:27:06.400Z,33.7
2017-10-10T02:28:06.584Z,33.7
2017-10-10T02:29:06.398Z,33.7
2017-10-10T02:30:06.457Z,33.7
2017-10-10T02:31:06.517Z,33.7
2017-10-10T02:32:06.536Z,33.7
2017-10-10T02:33:06.734Z,33.7
2017-10-10T02:34:06.946Z,33.7
2017-10-10T02:35:06.724Z,33.7
2017-10-10T02:36:06.796Z,33.7
2017-10-10T02:37:06.909Z,33.7
2017-10-10T02:38:06.854Z,33.7
2017-10-10T02:39:06.971Z,33.7
2017-10-10T02:40:07.201Z,33.7
2017-10-10T02:41:06.931Z,33.7
2017-10-10T02:42:07.097Z,33.7
2017-10-10T02:43:07.186Z,33.7
2017-10-10T02:44:07.142Z,33.7
2017-10-10T02:45:07.365Z,33.7
2017-10-10T02:46:07.516Z,33.7
2017-10-10T02:47:07.347Z,33.7
2017-10-10T02:48:07.338Z,33.7
2017-10-10T02:49:07.561Z,33.7
2017-10-10T02:50:07.513Z,33.7
2017-10-10T02:51:07.526Z,33.7
2017-10-10T02:52:08.130Z,33.7
2017-10-10T02:53:07.839Z,33.7
2017-10-10T02:54:07.717Z,33.7
2017-10-10T02:55:07.834Z,33.7
2017-10-10T02:56:08.014Z,33.7
2017-10-10T02:57:08.073Z,33.7
2017-10-10T02:58:08.436Z,33.7
2017-10-10T02:59:08.045Z,33.7
2017-10-10T03:00:08.260Z,33.7
2017-10-10T03:01:09.574Z,33.7
2017-10-10T03:02:08.273Z,33.7
2017-10-10T03:03:08.306Z,33.7
2017-10-10T03:04:08.613Z,33.7
2017-10-10T03:05:08.484Z,33.7
2017-10-10T03:06:08.728Z,33.7
2017-10-10T03:07:08.648Z,33.7
2017-10-10T03:08:08.836Z,33.7
2017-10-10T03:09:08.705Z,33.7
2017-10-10T03:10:09.211Z,33.7
2017-10-10T03:11:08.936Z,33.7
2017-10-10T03:12:08.886Z,33.7
2017-10-10T03:13:09.006Z,33.7
2017-10-10T03:14:08.994Z,33.7
2017-10-10T03:15:09.112Z,33.7
2017-10-10T03:16:09.394Z,33.7
2017-10-10T03:17:09.451Z,33.7
2017-10-10T03:18:09.262Z,33.7
2017-10-10T03:19:09.361Z,33.7
2017-10-10T03:20:09.360Z,33.7
2017-10-10T03:21:09.484Z,33.7
2017-10-10T03:22:09.905Z,33.7
2017-10-10T03:23:09.634Z,33.7
2017-10-10T03:24:09.495Z,33.7
2017-10-10T03:25:09.595Z,33.7
2017-10-10T03:26:09.609Z,33.7
2017-10-10T03:27:09.821Z,33.8
2017-10-10T03:28:10.214Z,34.1
2017-10-10T03:29:09.913Z,34.3
2017-10-10T03:30:09.792Z,34.5
2017-10-10T03:31:09.982Z,34.7
2017-10-10T03:32:09.953Z,34.9
2017-10-10T03:33:10.146Z,35
2017-10-10T03:34:10.342Z,35.2
2017-10-10T03:35:10.106Z,35.2
2017-10-10T03:36:10.164Z,35.3
2017-10-10T03:37:10.208Z,35.3
2017-10-10T03:38:10.274Z,35.2
2017-10-10T03:39:10.321Z,35.2
2017-10-10T03:40:10.616Z,35.1
2017-10-10T03:41:10.369Z,35
2017-10-10T03:42:10.478Z,34.9
2017-10-10T03:43:10.560Z,34.9
2017-10-10T03:44:10.535Z,35
2017-10-10T03:45:10.624Z,35
2017-10-10T03:46:10.989Z,35.1
2017-10-10T03:47:10.788Z,35.1
2017-10-10T03:48:10.869Z,35.1
2017-10-10T03:49:10.876Z,35.2
2017-10-10T03:50:11.073Z,35.2
2017-10-10T03:51:11.284Z,35.3
2017-10-10T03:52:11.191Z,35.3
2017-10-10T03:53:11.182Z,35.3
2017-10-10T03:54:11.262Z,35.4
2017-10-10T03:55:11.129Z,35.4
2017-10-10T03:56:11.157Z,35.4
2017-10-10T03:57:11.625Z,35.4
2017-10-10T03:58:11.334Z,35.4
2017-10-10T03:59:11.323Z,35.4
2017-10-10T04:00:11.533Z,35.4
2017-10-10T04:01:11.578Z,35.4
2017-10-10T04:02:11.477Z,35.4
2017-10-10T04:03:11.885Z,35.4
2017-10-10T04:04:11.482Z,35.4
2017-10-10T04:05:11.522Z,35.4
2017-10-10T04:06:11.719Z,35.4
2017-10-10T04:07:11.740Z,35.4
2017-10-10T04:08:11.744Z,35.4
2017-10-10T04:09:12.125Z,35.4
2017-10-10T04:10:11.749Z,35.3
2017-10-10T04:11:11.757Z,35.3
2017-10-10T04:12:11.944Z,35.3
2017-10-10T04:13:11.942Z,35.3
2017-10-10T04:14:11.969Z,35.3
2017-10-10T04:15:12.217Z,35.3
2017-10-10T04:16:11.960Z,35.3
2017-10-10T04:17:12.167Z,35.3
2017-10-10T04:18:12.190Z,35.3
2017-10-10T04:19:12.247Z,35.3
2017-10-10T04:20:12.194Z,35.3
2017-10-10T04:21:12.526Z,35.3
2017-10-10T04:22:12.489Z,35.3
2017-10-10T04:23:12.444Z,35.3
2017-10-10T04:24:12.475Z,35.3
2017-10-10T04:25:12.542Z,35.3
2017-10-10T04:26:12.566Z,35.3
2017-10-10T04:27:12.907Z,35.3
2017-10-10T04:28:12.768Z,35.3
2017-10-10T04:29:12.862Z,35.3
2017-10-10T04:30:12.880Z,35.2
2017-10-10T04:31:12.781Z,35.1
2017-10-10T04:32:12.891Z,35.2
2017-10-10T04:33:13.213Z,35.2
2017-10-10T04:34:13.055Z,35.3
2017-10-10T04:35:13.184Z,35.5
2017-10-10T04:36:13.282Z,35.6
2017-10-10T04:37:13.156Z,35.8
2017-10-10T04:38:19.491Z,36
2017-10-10T04:39:13.275Z,36.2
2017-10-10T04:40:13.360Z,36.4
2017-10-10T04:41:13.408Z,36.5
2017-10-10T04:42:13.305Z,36.6
2017-10-10T04:43:13.453Z,36.7
2017-10-10T04:44:13.700Z,36.8
2017-10-10T04:45:13.388Z,36.9
2017-10-10T04:46:13.659Z,37
2017-10-10T04:47:13.691Z,37.1
2017-10-10T04:48:13.626Z,37.2
2017-10-10T04:49:13.879Z,37.4
2017-10-10T04:50:14.033Z,37.4
2017-10-10T04:51:13.923Z,37.4
2017-10-10T04:52:14.036Z,37.5
2017-10-10T04:53:13.896Z,37.7
2017-10-10T04:54:14.067Z,37.7
2017-10-10T04:55:14.028Z,37.7
2017-10-10T04:56:14.387Z,37.8
2017-10-10T04:57:14.320Z,37.9
2017-10-10T04:58:14.257Z,38
2017-10-10T04:59:14.448Z,37.9
2017-10-10T05:00:14.462Z,37.9
2017-10-10T05:01:14.361Z,37.8
2017-10-10T05:02:14.794Z,37.7
2017-10-10T05:03:14.403Z,37.7
2017-10-10T05:04:14.529Z,37.7
2017-10-10T05:05:14.592Z,37.8
2017-10-10T05:06:14.590Z,37.9
2017-10-10T05:07:14.546Z,38
2017-10-10T05:08:15.088Z,38.1
2017-10-10T05:09:14.669Z,38.2
2017-10-10T05:10:14.821Z,38.2
2017-10-10T05:11:14.863Z,38.3
2017-10-10T05:12:14.760Z,38.3
2017-10-10T05:13:14.931Z,38.4
2017-10-10T05:14:15.117Z,38.4
2017-10-10T05:15:15.027Z,38.4
2017-10-10T05:16:15.073Z,38.4
2017-10-10T05:17:15.020Z,38.4
2017-10-10T05:18:15.029Z,38.5
2017-10-10T05:19:15.229Z,38.5
2017-10-10T05:20:15.541Z,38.6
2017-10-10T05:21:15.374Z,38.6
2017-10-10T05:22:15.224Z,38.6
2017-10-10T05:23:15.241Z,38.7
2017-10-10T05:24:15.423Z,38.8
2017-10-10T05:25:15.399Z,38.9
2017-10-10T05:26:15.841Z,39.1
2017-10-10T05:27:15.595Z,39.2
2017-10-10T05:28:15.686Z,39.3
2017-10-10T05:29:15.797Z,39.4
2017-10-10T05:30:15.892Z,39.5
2017-10-10T05:31:15.901Z,39.5
2017-10-10T05:32:16.026Z,39.6
2017-10-10T05:33:15.771Z,39.6
2017-10-10T05:34:15.971Z,39.7
2017-10-10T05:35:15.873Z,39.8
2017-10-10T05:36:16.055Z,39.8
2017-10-10T05:37:16.092Z,39.9
2017-10-10T05:38:16.473Z,39.9
2017-10-10T05:39:16.267Z,40
2017-10-10T05:40:16.320Z,40.1
2017-10-10T05:41:16.375Z,40.1
2017-10-10T05:42:16.406Z,40.2
2017-10-10T05:43:16.450Z,40.2
2017-10-10T05:44:16.803Z,40.3
2017-10-10T05:45:16.559Z,40.4
2017-10-10T05:46:16.610Z,40.4
2017-10-10T05:47:16.562Z,40.5
2017-10-10T05:48:16.629Z,40.5
2017-10-10T05:49:16.629Z,40.5
2017-10-10T05:50:17.203Z,40.5
2017-10-10T05:51:16.859Z,40.5
2017-10-10T05:52:16.805Z,40.5
2017-10-10T05:53:16.779Z,40.6
2017-10-10T05:54:16.793Z,40.5
2017-10-10T05:55:16.802Z,40.5
2017-10-10T05:56:17.143Z,40.5
2017-10-10T05:57:17.087Z,40.5
2017-10-10T05:58:16.962Z,40.5
2017-10-10T05:59:17.138Z,40.6
2017-10-10T06:00:17.108Z,40.7
2017-10-10T06:01:17.124Z,40.8
2017-10-10T06:02:17.517Z,40.9
2017-10-10T06:03:17.206Z,40.9
2017-10-10T06:04:17.211Z,41
2017-10-10T06:05:17.266Z,41.1
2017-10-10T06:06:17.388Z,41.1
2017-10-10T06:07:17.328Z,41.2
2017-10-10T06:08:17.641Z,41.2
2017-10-10T06:09:17.387Z,41.3
2017-10-10T06:10:17.452Z,41.4
2017-10-10T06:11:17.576Z,41.5
2017-10-10T06:12:17.491Z,41.5
2017-10-10T06:13:17.531Z,41.5
2017-10-10T06:14:18.018Z,41.5
2017-10-10T06:15:17.628Z,41.5
2017-10-10T06:16:17.737Z,41.4
2017-10-10T06:17:17.836Z,41.3
2017-10-10T06:18:18.008Z,41.2
2017-10-10T06:19:17.889Z,41.2
2017-10-10T06:20:18.354Z,41.1
2017-10-10T06:21:18.126Z,41.1
2017-10-10T06:22:18.153Z,41.1
2017-10-10T06:23:18.240Z,41.2
2017-10-10T06:24:18.178Z,41.2
2017-10-10T06:25:18.230Z,41.2
2017-10-10T06:26:18.762Z,41.2
2017-10-10T06:27:18.382Z,41.2
2017-10-10T06:28:18.487Z,41.3
2017-10-10T06:29:18.529Z,41.3
2017-10-10T06:30:18.438Z,41.3
2017-10-10T06:31:18.670Z,41.4
2017-10-10T06:32:18.859Z,41.5
2017-10-10T06:33:18.679Z,41.6
2017-10-10T06:34:18.581Z,41.7
2017-10-10T06:35:18.787Z,41.8
2017-10-10T06:36:18.846Z,41.9
2017-10-10T06:37:18.812Z,42
2017-10-10T06:38:19.155Z,42.1
2017-10-10T06:39:18.967Z,42.1
2017-10-10T06:40:19.008Z,42.2
2017-10-10T06:41:19.219Z,42.3
2017-10-10T06:42:19.056Z,42.5
2017-10-10T06:43:19.236Z,42.6
2017-10-10T06:44:19.584Z,42.7
2017-10-10T06:45:19.283Z,42.7
2017-10-10T06:46:19.301Z,42.8
2017-10-10T06:47:19.313Z,42.9
2017-10-10T06:48:19.420Z,43
2017-10-10T06:49:19.637Z,43
2017-10-10T06:50:19.715Z,43.1
2017-10-10T06:51:19.595Z,43.1
2017-10-10T06:52:19.715Z,43.2
2017-10-10T06:53:19.681Z,43.2
2017-10-10T06:54:19.684Z,43.2
2017-10-10T06:55:19.608Z,43.3
2017-10-10T06:56:20.500Z,43.3
2017-10-10T06:57:19.821Z,43.4
2017-10-10T06:58:19.757Z,43.5
2017-10-10T06:59:19.764Z,43.6
2017-10-10T07:00:19.838Z,43.7
2017-10-10T07:01:20.080Z,43.8
2017-10-10T07:02:20.176Z,43.9
2017-10-10T07:03:20.152Z,43.9
2017-10-10T07:04:20.182Z,44
2017-10-10T07:05:20.253Z,44.1
2017-10-10T07:06:20.451Z,44.3
2017-10-10T07:07:20.373Z,44.4
2017-10-10T07:08:20.615Z,44.4
2017-10-10T07:09:20.522Z,44.5
2017-10-10T07:10:20.378Z,44.6
2017-10-10T07:11:20.362Z,44.6
2017-10-10T07:12:20.597Z,44.8
2017-10-10T07:13:20.638Z,44.9
2017-10-10T07:14:21.401Z,45
2017-10-10T07:15:22.680Z,44.9
2017-10-10T07:16:22.429Z,44.9
2017-10-10T07:17:21.864Z,45
2017-10-10T07:18:22.317Z,45
2017-10-10T07:19:23.090Z,45.1
2017-10-10T07:20:22.605Z,45.2
2017-10-10T07:21:23.196Z,45.3
2017-10-10T07:22:22.797Z,45.4
2017-10-10T07:23:23.978Z,45.4
2017-10-10T07:24:24.300Z,45.3
2017-10-10T07:25:22.480Z,44.7
2017-10-10T07:26:21.412Z,44
2017-10-10T07:27:21.125Z,43.3
2017-10-10T07:28:21.161Z,42.7
2017-10-10T07:29:21.172Z,42.3
2017-10-10T07:30:21.154Z,41.9
2017-10-10T07:31:21.351Z,41.7
2017-10-10T07:32:21.650Z,41.4
2017-10-10T07:33:21.469Z,41.2
2017-10-10T07:34:21.548Z,41
2017-10-10T07:35:21.630Z,40.8
2017-10-10T07:36:21.693Z,40.6
2017-10-10T07:37:21.705Z,40.5
2017-10-10T07:38:21.971Z,40.2
2017-10-10T07:39:21.804Z,40
2017-10-10T07:40:21.638Z,39.9
2017-10-10T07:41:21.777Z,39.8
2017-10-10T07:42:22.054Z,39.7
2017-10-10T07:43:21.891Z,39.5
2017-10-10T07:44:22.313Z,39.4
2017-10-10T07:45:21.946Z,39.4
2017-10-10T07:46:21.981Z,39.3
2017-10-10T07:47:22.076Z,39.3
2017-10-10T07:48:22.935Z,39.3
2017-10-10T07:49:23.105Z,39.2
2017-10-10T07:50:22.548Z,39.1
2017-10-10T07:51:22.398Z,39
2017-10-10T07:52:22.443Z,39
2017-10-10T07:53:22.511Z,38.9
2017-10-10T07:54:22.699Z,38.8
2017-10-10T07:55:22.778Z,38.9
2017-10-10T07:56:23.108Z,38.8
2017-10-10T07:57:22.958Z,38.7
2017-10-10T07:58:22.961Z,38.8
2017-10-10T07:59:22.907Z,38.7
2017-10-10T08:00:23.111Z,38.7
2017-10-10T08:01:23.050Z,38.6
2017-10-10T08:02:23.431Z,38.6
2017-10-10T08:03:23.262Z,38.5
2017-10-10T08:04:23.761Z,38.5
2017-10-10T08:05:23.823Z,38.4
2017-10-10T08:06:23.427Z,38.3
2017-10-10T08:07:23.486Z,38.3
2017-10-10T08:08:23.697Z,38.2
2017-10-10T08:09:23.388Z,38.2
2017-10-10T08:10:23.437Z,38.1
2017-10-10T08:11:23.510Z,38.1
2017-10-10T08:12:23.513Z,38.1
2017-10-10T08:13:23.778Z,38
2017-10-10T08:14:24.007Z,38
2017-10-10T08:15:23.779Z,38
2017-10-10T08:16:23.854Z,37.9
2017-10-10T08:17:24.042Z,37.9
2017-10-10T08:18:23.929Z,37.9
2017-10-10T08:19:23.879Z,37.8
2017-10-10T08:20:24.351Z,37.9
2017-10-10T08:21:24.155Z,37.9
2017-10-10T08:22:24.233Z,37.9
2017-10-10T08:23:24.119Z,37.9
2017-10-10T08:24:24.339Z,38
2017-10-10T08:25:24.347Z,38
2017-10-10T08:26:24.537Z,38
2017-10-10T08:27:24.387Z,38
2017-10-10T08:28:24.334Z,38
2017-10-10T08:29:25.066Z,38
2017-10-10T08:30:24.487Z,37.9
2017-10-10T08:31:24.576Z,37.9
2017-10-10T08:32:24.832Z,37.9
2017-10-10T08:33:24.734Z,37.9
2017-10-10T08:34:24.599Z,37.9
2017-10-10T08:35:24.740Z,37.9
2017-10-10T08:36:24.913Z,38
2017-10-10T08:37:24.779Z,37.9
2017-10-10T08:38:25.160Z,38
2017-10-10T08:39:24.972Z,38
2017-10-10T08:40:25.801Z,38
2017-10-10T08:41:25.191Z,38
2017-10-10T08:42:25.190Z,38.1
2017-10-10T08:43:25.200Z,38.1
2017-10-10T08:44:26.163Z,38.1
2017-10-10T08:45:25.280Z,38.1
2017-10-10T08:46:25.377Z,38.2
2017-10-10T08:47:25.290Z,38.2
2017-10-10T08:48:25.508Z,38.3
2017-10-10T08:49:25.527Z,38.3
2017-10-10T08:50:26.620Z,38.4
2017-10-10T08:51:25.380Z,38.4
2017-10-10T08:52:25.554Z,38.5
2017-10-10T08:53:25.738Z,38.5
2017-10-10T08:54:25.710Z,38.5
2017-10-10T08:55:25.565Z,38.6
2017-10-10T08:56:26.015Z,38.6
2017-10-10T08:57:25.666Z,38.6
2017-10-10T08:58:25.869Z,38.6
2017-10-10T08:59:25.765Z,38.6
2017-10-10T09:00:25.771Z,38.6
2017-10-10T09:01:25.928Z,38.6
2017-10-10T09:02:26.244Z,38.6
2017-10-10T09:03:26.009Z,38.7
2017-10-10T09:04:26.009Z,38.7
2017-10-10T09:05:25.904Z,38.7
2017-10-10T09:06:26.096Z,38.5
2017-10-10T09:07:26.115Z,38.2
2017-10-10T09:08:26.347Z,38.1
2017-10-10T09:09:26.150Z,38.1
2017-10-10T09:10:26.200Z,38
2017-10-10T09:11:26.356Z,37.9
2017-10-10T09:12:26.242Z,37.8
2017-10-10T09:13:26.284Z,37.8
2017-10-10T09:14:26.665Z,37.7
2017-10-10T09:15:26.534Z,37.6
2017-10-10T09:16:26.592Z,37.6
2017-10-10T09:17:26.599Z,37.6
2017-10-10T09:18:29.928Z,37.5
2017-10-10T09:19:27.130Z,37.6
2017-10-10T09:20:27.685Z,37.5
2017-10-10T09:21:27.487Z,37.4
2017-10-10T09:22:27.590Z,37.4
2017-10-10T09:23:27.681Z,37.4
2017-10-10T09:24:27.384Z,37.4
2017-10-10T09:25:28.382Z,37.3
2017-10-10T09:26:30.564Z,37.3
2017-10-10T09:27:29.902Z,37.3
2017-10-10T09:28:30.437Z,37.3
2017-10-10T09:29:27.245Z,37.3
2017-10-10T09:30:27.408Z,37.3
2017-10-10T09:31:27.472Z,37.4
2017-10-10T09:32:27.694Z,37.4
2017-10-10T09:33:27.821Z,37.3
2017-10-10T09:34:27.495Z,37.3
2017-10-10T09:35:27.639Z,37.2
2017-10-10T09:36:27.754Z,37.1
2017-10-10T09:37:27.636Z,37.2
2017-10-10T09:38:28.195Z,37.2
2017-10-10T09:39:27.918Z,37.2
2017-10-10T09:40:28.134Z,37.2
2017-10-10T09:41:27.928Z,37.1
2017-10-10T09:42:28.137Z,37.1
2017-10-10T09:43:28.397Z,37.1
2017-10-10T09:44:28.161Z,37.1
2017-10-10T09:45:28.308Z,37.1
2017-10-10T09:46:28.540Z,37.1
2017-10-10T09:47:28.326Z,37.1
2017-10-10T09:48:28.555Z,37.1
2017-10-10T09:49:28.633Z,37.2
2017-10-10T09:50:28.424Z,37.2
2017-10-10T09:51:28.487Z,37
2017-10-10T09:52:28.656Z,36.9
2017-10-10T09:53:28.737Z,36.8
2017-10-10T09:54:28.736Z,36.8
2017-10-10T09:55:29.128Z,36.7
2017-10-10T09:56:28.907Z,36.7
2017-10-10T09:57:28.979Z,36.8
2017-10-10T09:58:28.906Z,36.9
2017-10-10T09:59:29.173Z,37
2017-10-10T10:00:29.318Z,37.1
2017-10-10T10:01:29.434Z,37.1
2017-10-10T10:02:29.267Z,37.2
2017-10-10T10:03:29.203Z,37.2
2017-10-10T10:04:29.270Z,37.3
2017-10-10T10:05:30.193Z,37.4
2017-10-10T10:06:29.552Z,37.5
2017-10-10T10:07:29.790Z,37.5
2017-10-10T10:08:29.573Z,37.4
2017-10-10T10:09:29.575Z,37.4
2017-10-10T10:10:29.619Z,37.4
2017-10-10T10:11:29.984Z,37.3
2017-10-10T10:12:29.797Z,37.1
2017-10-10T10:13:30.061Z,37
2017-10-10T10:14:29.654Z,36.9
2017-10-10T10:15:29.732Z,36.9
2017-10-10T10:16:29.771Z,36.9
2017-10-10T10:17:29.895Z,36.9
2017-10-10T10:18:30.171Z,36.8
2017-10-10T10:19:30.359Z,36.8
2017-10-10T10:20:30.264Z,36.7
2017-10-10T10:21:30.047Z,36.7
2017-10-10T10:22:30.109Z,36.7
2017-10-10T10:23:30.481Z,36.7
2017-10-10T10:24:30.294Z,36.7
2017-10-10T10:25:30.728Z,36.7
2017-10-10T10:26:30.348Z,36.6
2017-10-10T10:27:30.268Z,36.6
2017-10-10T10:28:30.413Z,36.6
2017-10-10T10:29:30.377Z,36.5
2017-10-10T10:30:30.455Z,36.3
2017-10-10T10:31:30.757Z,36.2
2017-10-10T10:32:30.577Z,36.2
2017-10-10T10:33:30.638Z,36.3
2017-10-10T10:34:30.721Z,36.1
2017-10-10T10:35:30.738Z,36.1
2017-10-10T10:36:31.705Z,36
2017-10-10T10:37:31.083Z,36
2017-10-10T10:38:30.823Z,35.9
2017-10-10T10:39:30.935Z,35.9
2017-10-10T10:40:31.131Z,36
2017-10-10T10:41:30.959Z,36
2017-10-10T10:42:30.985Z,36
2017-10-10T10:43:31.818Z,36
2017-10-10T10:44:33.014Z,36
2017-10-10T10:45:30.990Z,35.9
2017-10-10T10:46:31.011Z,35.9
2017-10-10T10:47:31.164Z,35.9
2017-10-10T10:48:31.243Z,35.8
2017-10-10T10:49:31.385Z,35.8
2017-10-10T10:50:31.250Z,35.9
2017-10-10T10:51:31.198Z,36
2017-10-10T10:52:31.325Z,35.9
2017-10-10T10:53:31.448Z,36
2017-10-10T10:54:31.404Z,36.1
2017-10-10T10:55:31.743Z,36.1
2017-10-10T10:56:31.418Z,36.1
2017-10-10T10:57:31.632Z,36.1
2017-10-10T10:58:31.835Z,36.1
2017-10-10T10:59:31.754Z,36
2017-10-10T11:00:31.716Z,36.1
2017-10-10T11:01:32.054Z,36.2
2017-10-10T11:02:31.891Z,36.3
2017-10-10T11:03:31.826Z,36.3
2017-10-10T11:04:32.008Z,36.3
2017-10-10T11:05:32.567Z,36.2
2017-10-10T11:06:32.330Z,36.3
2017-10-10T11:07:32.480Z,36.3
2017-10-10T11:08:32.384Z,36.1
2017-10-10T11:09:32.337Z,35.9
2017-10-10T11:10:32.360Z,35.6
2017-10-10T11:11:32.862Z,35.3
2017-10-10T11:12:32.411Z,35.2
2017-10-10T11:13:32.808Z,35.2
2017-10-10T11:14:32.610Z,35
2017-10-10T11:15:33.281Z,34.8
2017-10-10T11:16:32.799Z,34.7
2017-10-10T11:17:32.633Z,34.5
2017-10-10T11:18:32.720Z,34.3
2017-10-10T11:19:33.083Z,34.2
2017-10-10T11:20:32.792Z,34.2
2017-10-10T11:21:32.857Z,34.2
2017-10-10T11:22:32.867Z,34.1
2017-10-10T11:23:33.028Z,34.2
2017-10-10T11:24:32.795Z,34.3
2017-10-10T11:25:33.422Z,34.4
2017-10-10T11:26:32.813Z,34.5
2017-10-10T11:27:32.980Z,34.4
2017-10-10T11:28:32.911Z,34.4
2017-10-10T11:29:32.990Z,34.4
2017-10-10T11:30:33.126Z,34.6
2017-10-10T11:31:33.460Z,34.8
2017-10-10T11:32:33.104Z,34.9
2017-10-10T11:33:33.382Z,34.8
2017-10-10T11:34:33.230Z,34.8
2017-10-10T11:35:33.243Z,34.9
2017-10-10T11:36:33.503Z,35
2017-10-10T11:37:33.663Z,35
2017-10-10T11:38:33.524Z,35.2
2017-10-10T11:39:34.142Z,35.4
2017-10-10T11:40:33.545Z,35.5
2017-10-10T11:41:33.634Z,35.4
2017-10-10T11:42:33.820Z,35.5
2017-10-10T11:43:34.048Z,35.7
2017-10-10T11:44:34.001Z,35.5
2017-10-10T11:45:34.678Z,35
2017-10-10T11:46:33.957Z,34.6
2017-10-10T11:47:33.914Z,34.2
2017-10-10T11:48:34.005Z,34.1
2017-10-10T11:49:34.373Z,34.2
2017-10-10T11:50:34.252Z,34.1
2017-10-10T11:51:34.172Z,34.2
2017-10-10T11:52:34.157Z,34.2
2017-10-10T11:53:34.236Z,34.2
2017-10-10T11:54:34.238Z,34.4
2017-10-10T11:55:34.621Z,34.5
2017-10-10T11:56:34.429Z,34.7
2017-10-10T11:57:34.374Z,34.9
2017-10-10T11:58:34.555Z,35.1
2017-10-10T11:59:34.593Z,35.2
2017-10-10T12:00:34.791Z,35.4
2017-10-10T12:01:34.740Z,35.6
2017-10-10T12:02:34.877Z,35.7
2017-10-10T12:03:34.867Z,35.9
2017-10-10T12:04:34.842Z,35.9
2017-10-10T12:05:34.975Z,35.9
2017-10-10T12:06:34.863Z,35.9
2017-10-10T12:07:35.221Z,35.9
2017-10-10T12:08:34.825Z,35.9
2017-10-10T12:09:34.956Z,35.9
2017-10-10T12:10:35.005Z,36
2017-10-10T12:11:35.210Z,36
2017-10-10T12:12:35.411Z,36
2017-10-10T12:13:35.166Z,35.8
2017-10-10T12:14:35.192Z,35.6
2017-10-10T12:15:35.302Z,35.5
2017-10-10T12:16:35.318Z,35.3
2017-10-10T12:17:35.390Z,35.2
2017-10-10T12:18:35.572Z,35.1
2017-10-10T12:19:40.641Z,34.9
2017-10-10T12:20:35.577Z,35
2017-10-10T12:21:35.595Z,35.1
2017-10-10T12:22:36.604Z,35.3
2017-10-10T12:23:35.871Z,34.9
2017-10-10T12:24:35.841Z,34.7
2017-10-10T12:25:35.903Z,34.4
2017-10-10T12:26:35.984Z,34.1
2017-10-10T12:27:36.060Z,34
2017-10-10T12:28:36.080Z,33.7
2017-10-10T12:29:36.038Z,33.4
2017-10-10T12:30:36.103Z,33.4
2017-10-10T12:31:36.313Z,33.4
2017-10-10T12:32:36.182Z,33.2
2017-10-10T12:33:36.148Z,33.1
2017-10-10T12:34:36.430Z,33.1
2017-10-10T12:35:36.499Z,33.1
2017-10-10T12:36:36.437Z,33.1
2017-10-10T12:37:36.735Z,33.1
2017-10-10T12:38:36.289Z,33.2
2017-10-10T12:39:36.455Z,33.3
2017-10-10T12:40:36.628Z,33.5
2017-10-10T12:41:36.560Z,33.5
2017-10-10T12:42:36.739Z,33.6
2017-10-10T12:43:37.072Z,33.8
2017-10-10T12:44:36.680Z,34
2017-10-10T12:45:36.861Z,34.3
2017-10-10T12:46:37.213Z,34.4
2017-10-10T12:47:37.815Z,34.6
2017-10-10T12:48:37.777Z,34.7
2017-10-10T12:49:37.952Z,34.8
2017-10-10T12:50:37.161Z,35
2017-10-10T12:51:37.264Z,35.1
2017-10-10T12:52:37.111Z,35.2
2017-10-10T12:53:37.114Z,35.3
2017-10-10T12:54:37.887Z,35.2
2017-10-10T12:55:37.518Z,35.1
2017-10-10T12:56:38.220Z,35
2017-10-10T12:57:37.393Z,35
2017-10-10T12:58:37.524Z,34.9
2017-10-10T12:59:37.532Z,34.9
2017-10-10T13:00:37.474Z,34.9
2017-10-10T13:01:37.991Z,34.9
2017-10-10T13:02:37.811Z,35
2017-10-10T13:03:37.712Z,35.1
2017-10-10T13:04:37.755Z,35.1
2017-10-10T13:05:37.959Z,35.4
2017-10-10T13:06:37.873Z,35.5
2017-10-10T13:07:38.142Z,35.5
2017-10-10T13:08:38.027Z,35.6
2017-10-10T13:09:37.923Z,35.7
2017-10-10T13:10:37.982Z,35.9
2017-10-10T13:11:38.148Z,36
2017-10-10T13:12:38.182Z,36
2017-10-10T13:13:38.475Z,36.1
2017-10-10T13:14:38.144Z,36.1
2017-10-10T13:15:38.233Z,36
2017-10-10T13:16:38.311Z,36
2017-10-10T13:17:38.485Z,36.1
2017-10-10T13:18:38.373Z,36.3
2017-10-10T13:19:38.833Z,36.3
2017-10-10T13:20:38.338Z,36.3
2017-10-10T13:21:38.488Z,36.2
2017-10-10T13:22:38.469Z,36.3
2017-10-10T13:23:38.540Z,36.3
2017-10-10T13:24:38.784Z,36.4